Time;durP1;ratioP1;P1;durP2;ratioP2;P2;SDS_P1;SDS_P2;PMS_P1;PMS_P2;Temp;Humidity;BMP_temperature;BMP_pressure;BME280_temperature;BME280_humidity;BME280_pressure;Samples;Min_cycle;Max_cycle;Signal;HPM_P1;HPM_P2
2023/12/02 00:02:20;;;;;;;;;;;;;;;3.15;48.07;99839.22;4981543;28;7096;-73
2023/12/02 00:04:46;;;;;;;;;;;;;;;3.13;48.79;99847.47;4980893;28;6922;-73
2023/12/02 00:07:12;;;;;;;;;;;;;;;3.10;48.40;99850.72;4975963;28;7143;-73
2023/12/02 00:09:37;;;;;;;;;;;;;;;3.08;49.07;99844.63;4985330;28;6847;-73
2023/12/02 00:12:03;;;;;;;;;;;;;;;3.08;49.32;99844.63;4968993;28;6980;-73
2023/12/02 00:14:29;;;;;;;;;;;;;;;3.09;49.01;99846.41;4983326;28;6994;-74
2023/12/02 00:16:55;;;;;;;;;;;;;;;3.10;49.31;99837.16;4987469;28;6973;-73
2023/12/02 00:19:20;;;;;;;;;;;;;;;3.09;49.02;99846.41;4980070;28;6780;-73
2023/12/02 00:21:46;;;;;;;;;;;;;;;3.10;49.39;99853.25;4974457;28;7020;-73
2023/12/02 00:24:11;;;;;;;;;;;;;;;3.12;49.10;99850.78;4984927;28;6926;-73
2023/12/02 00:26:37;;;;;;;;;;;;;;;3.12;48.82;99848.25;4982765;28;7155;-74
2023/12/02 00:29:02;;;;;;;;;;;;;;;3.12;49.93;99840.66;4999430;28;7429;-74
2023/12/02 00:31:28;;;;;;;;;;;;;;;3.11;49.80;99852.47;4985253;28;6804;-73
2023/12/02 00:33:53;;;;;;;;;;;;;;;3.09;48.88;99851.47;4985061;28;6788;-74
2023/12/02 00:36:19;;;;;;;;;;;;;;;3.07;48.78;99845.41;4978446;28;6851;-73
2023/12/02 00:38:44;;;;;;;;;;;;;;;3.07;48.88;99855.53;4982847;28;6804;-73
2023/12/02 00:41:10;;;;;;;;;;;;;;;3.07;49.15;99855.53;4983778;28;7236;-73
2023/12/02 00:43:36;;;;;;;;;;;;;;;3.08;49.64;99861.50;4985615;28;8538;-74
2023/12/02 00:46:01;;;;;;;;;;;;;;;3.07;49.43;99863.13;4981020;28;7008;-81
2023/12/02 00:48:27;;;;;;;;;;;;;;;3.08;48.75;99867.41;4974251;28;6780;-77
2023/12/02 00:50:53;;;;;;;;;;;;;;;3.08;49.13;99854.75;4970677;28;7244;-77
2023/12/02 00:53:18;;;;;;;;;;;;;;;3.09;49.47;99853.13;4986059;28;7048;-82
2023/12/02 00:55:44;;;;;;;;;;;;;;;3.10;49.31;99855.78;4985050;28;6792;-82
2023/12/02 00:58:09;;;;;;;;;;;;;;;3.12;49.34;99850.78;4976040;28;6888;-81
2023/12/02 01:00:35;;;;;;;;;;;;;;;3.13;49.75;99850.91;4986370;28;7037;-79
2023/12/02 01:03:00;;;;;;;;;;;;;;;3.15;48.77;99856.94;4975867;28;8458;-82
2023/12/02 01:05:26;;;;;;;;;;;;;;;3.16;49.29;99855.31;4966974;28;7048;-80
2023/12/02 01:07:51;;;;;;;;;;;;;;;3.17;49.10;99852.88;4986487;28;6788;-81
2023/12/02 01:10:17;;;;;;;;;;;;;;;3.19;49.58;99863.13;4983619;28;6804;-82
2023/12/02 01:12:43;;;;;;;;;;;;;;;3.21;49.44;99856.50;4981403;28;7214;-80
2023/12/02 01:15:09;;;;;;;;;;;;;;;3.18;49.47;99854.63;4981542;28;7210;-76
2023/12/02 01:17:34;;;;;;;;;;;;;;;3.17;49.07;99850.34;4974089;28;6930;-82
2023/12/02 01:20:00;;;;;;;;;;;;;;;3.19;48.84;99858.94;4970864;28;7202;-81
2023/12/02 01:22:25;;;;;;;;;;;;;;;3.19;49.43;99864.00;4980129;28;10002;-79
2023/12/02 01:24:51;;;;;;;;;;;;;;;3.19;49.89;99864.00;4982819;28;6780;-81
2023/12/02 01:27:16;;;;;;;;;;;;;;;3.22;49.99;99865.84;4983571;28;6855;-81
2023/12/02 01:29:42;;;;;;;;;;;;;;;3.23;49.64;99859.13;4989938;28;6974;-81
2023/12/02 01:32:07;;;;;;;;;;;;;;;3.22;49.33;99867.53;4982193;28;6804;-82
2023/12/02 01:34:33;;;;;;;;;;;;;;;3.21;49.95;99868.28;4982393;28;6783;-77
2023/12/02 01:36:58;;;;;;;;;;;;;;;3.19;48.93;99864.00;4960698;28;6999;-82
2023/12/02 01:39:24;;;;;;;;;;;;;;;3.18;49.92;99863.88;4974346;28;7082;-79
2023/12/02 01:41:50;;;;;;;;;;;;;;;3.15;49.80;99864.56;4973886;28;7218;-79
2023/12/02 01:44:15;;;;;;;;;;;;;;;3.15;49.56;99862.00;4956027;28;7137;-82
2023/12/02 01:46:40;;;;;;;;;;;;;;;3.15;49.95;99873.81;4958128;28;7315;-82
2023/12/02 01:49:08;;;;;;;;;;;;;;;3.14;49.86;99862.78;4968136;28;6987;-81
2023/12/02 01:51:34;;;;;;;;;;;;;;;3.15;49.77;99878.88;4959967;28;7464;-82
2023/12/02 01:54:00;;;;;;;;;;;;;;;3.15;50.02;99879.75;4966828;28;7300;-82
2023/12/02 01:56:26;;;;;;;;;;;;;;;3.15;50.06;99881.41;4980305;28;6883;-74
2023/12/02 01:58:51;;;;;;;;;;;;;;;3.14;49.69;99878.00;4974719;28;8521;-72
2023/12/02 02:01:17;;;;;;;;;;;;;;;3.14;50.00;99888.13;4980454;28;6934;-72
2023/12/02 02:03:42;;;;;;;;;;;;;;;3.13;49.18;99890.53;4972929;28;6858;-72
2023/12/02 02:06:11;;;;;;;;;;;;;;;3.13;50.07;99888.91;4974632;28;6915;-71
2023/12/02 02:08:36;;;;;;;;;;;;;;;3.13;49.58;99890.53;4977326;28;7300;-72
2023/12/02 02:11:02;;;;;;;;;;;;;;;3.14;49.49;99898.25;4980029;28;6804;-73
2023/12/02 02:13:28;;;;;;;;;;;;;;;3.15;50.07;99902.53;4978175;28;6779;-72
2023/12/02 02:15:54;;;;;;;;;;;;;;;3.14;49.72;99900.78;4981948;28;6968;-72
2023/12/02 02:18:20;;;;;;;;;;;;;;;3.16;50.23;99913.56;4975934;28;7199;-72
2023/12/02 02:20:53;;;;;;;;;;;;;;;3.17;50.13;99907.72;4972567;28;7224;-72
2023/12/02 02:23:20;;;;;;;;;;;;;;;3.15;50.10;99902.53;4982323;28;6984;-71
2023/12/02 02:25:46;;;;;;;;;;;;;;;3.15;49.66;99900.00;4962619;28;6991;-72
2023/12/02 02:28:11;;;;;;;;;;;;;;;3.16;49.97;99904.28;4977703;28;8812;-71
2023/12/02 02:30:37;;;;;;;;;;;;;;;3.16;50.33;99913.56;4978222;28;7418;-73
2023/12/02 02:33:03;;;;;;;;;;;;;;;3.16;50.30;99903.44;4973270;28;7207;-74
2023/12/02 02:35:31;;;;;;;;;;;;;;;3.16;49.70;99900.91;4976608;28;6980;-73
2023/12/02 02:37:56;;;;;;;;;;;;;;;3.15;49.86;99902.53;4964506;28;6980;-72
2023/12/02 02:40:21;;;;;;;;;;;;;;;3.15;49.88;99900.00;4983995;28;6827;-71
2023/12/02 02:42:47;;;;;;;;;;;;;;;3.16;49.80;99903.44;4965706;28;6984;-72
2023/12/02 02:45:12;;;;;;;;;;;;;;;3.15;50.15;99906.75;4979692;28;7467;-72
2023/12/02 02:47:38;;;;;;;;;;;;;;;3.15;50.28;99906.75;4990278;28;6968;-73
2023/12/02 02:50:04;;;;;;;;;;;;;;;3.14;49.56;99910.91;5000641;28;6970;-74
2023/12/02 02:52:29;;;;;;;;;;;;;;;3.16;49.57;99916.09;4981532;28;7032;-71
2023/12/02 02:54:55;;;;;;;;;;;;;;;3.17;50.12;99918.72;4980858;28;6791;-72
2023/12/02 02:57:20;;;;;;;;;;;;;;;3.19;49.64;99921.38;4983914;28;6799;-72
2023/12/02 02:59:46;;;;;;;;;;;;;;;3.22;49.58;99915.63;4972190;28;7584;-71
2023/12/02 03:02:11;;;;;;;;;;;;;;;3.23;49.78;99914.88;4978222;28;6952;-72
2023/12/02 03:04:37;;;;;;;;;;;;;;;3.20;50.04;99918.06;4983047;28;6946;-72
2023/12/02 03:07:02;;;;;;;;;;;;;;;3.21;49.58;99922.34;4972471;28;6972;-76
2023/12/02 03:09:28;;;;;;;;;;;;;;;3.19;49.35;99923.91;4983863;28;6787;-81
2023/12/02 03:11:53;;;;;;;;;;;;;;;3.20;50.11;99923.13;4983383;28;9031;-76
2023/12/02 03:14:19;;;;;;;;;;;;;;;3.16;50.20;99927.09;4984830;28;6943;-80
2023/12/02 03:16:44;;;;;;;;;;;;;;;3.15;49.71;99927.00;4984136;28;7288;-80
2023/12/02 03:19:10;;;;;;;;;;;;;;;3.15;49.56;99927.00;4978458;28;7143;-82
2023/12/02 03:21:35;;;;;;;;;;;;;;;3.14;49.72;99926.09;4975307;28;6788;-81
2023/12/02 03:24:04;;;;;;;;;;;;;;;3.14;50.29;99926.09;4973421;28;6982;-81
2023/12/02 03:26:30;;;;;;;;;;;;;;;3.15;49.78;99925.34;4983482;28;6792;-77
2023/12/02 03:28:56;;;;;;;;;;;;;;;3.15;50.12;99927.88;4974029;28;6808;-79
2023/12/02 03:31:22;;;;;;;;;;;;;;;3.14;49.22;99927.75;4982028;28;7165;-82
2023/12/02 03:33:48;;;;;;;;;;;;;;;3.12;49.59;99934.38;4969671;28;6795;-78
2023/12/02 03:36:13;;;;;;;;;;;;;;;3.12;49.73;99925.13;4987475;28;6843;-82
2023/12/02 03:38:40;;;;;;;;;;;;;;;3.12;49.57;99927.66;4964533;28;7252;-75
2023/12/02 03:41:07;;;;;;;;;;;;;;;3.12;50.19;99936.91;4982870;28;6974;-79
2023/12/02 03:43:32;;;;;;;;;;;;;;;3.10;49.93;99939.34;4971819;28;7041;-82
2023/12/02 03:45:59;;;;;;;;;;;;;;;3.09;50.38;99936.69;4967608;28;7199;-80
2023/12/02 03:48:25;;;;;;;;;;;;;;;3.06;49.39;99927.22;4981882;28;6816;-79
2023/12/02 03:50:50;;;;;;;;;;;;;;;3.04;49.76;99927.13;4973150;28;6800;-82
2023/12/02 03:53:16;;;;;;;;;;;;;;;3.05;50.00;99940.66;4982653;28;6799;-80
2023/12/02 03:55:41;;;;;;;;;;;;;;;3.02;49.44;99942.97;4964156;28;7236;-81
2023/12/02 03:58:06;;;;;;;;;;;;;;;3.01;49.51;99946.28;4975553;28;6796;-79
2023/12/02 04:00:32;;;;;;;;;;;;;;;2.98;49.23;99944.41;4967785;28;7438;-82
2023/12/02 04:02:59;;;;;;;;;;;;;;;2.98;49.05;99949.47;4973192;28;6965;-80
2023/12/02 04:05:24;;;;;;;;;;;;;;;2.99;48.93;99952.88;4988933;28;6984;-77
2023/12/02 04:07:50;;;;;;;;;;;;;;;2.99;48.88;99955.41;4986019;28;6942;-82
2023/12/02 04:10:15;;;;;;;;;;;;;;;3.00;48.75;99959.72;4971608;28;7060;-76
2023/12/02 04:12:41;;;;;;;;;;;;;;;3.01;49.26;99959.81;4982905;28;6784;-78
2023/12/02 04:15:07;;;;;;;;;;;;;;;3.03;49.08;99958.25;4974321;28;7311;-78
2023/12/02 04:17:32;;;;;;;;;;;;;;;3.06;48.92;99962.66;4997265;28;6848;-74
2023/12/02 04:19:58;;;;;;;;;;;;;;;3.08;49.72;99956.06;4978799;28;6871;-74
2023/12/02 04:22:24;;;;;;;;;;;;;;;3.12;49.93;99955.50;4975211;28;7061;-74
2023/12/02 04:24:50;;;;;;;;;;;;;;;3.15;48.94;99965.00;4966956;28;7059;-74
2023/12/02 04:27:15;;;;;;;;;;;;;;;3.15;48.94;99968.38;4964285;28;7132;-74
2023/12/02 04:29:42;;;;;;;;;;;;;;;3.15;49.78;99970.06;4985364;28;6784;-74
2023/12/02 04:32:10;;;;;;;;;;;;;;;3.12;49.28;99978.31;4983075;28;6821;-74
2023/12/02 04:34:36;;;;;;;;;;;;;;;3.12;49.07;99975.78;4984383;28;7192;-74
2023/12/02 04:37:02;;;;;;;;;;;;;;;3.13;49.93;99984.22;4984681;28;6823;-74
2023/12/02 04:39:28;;;;;;;;;;;;;;;3.13;49.25;99986.78;4985327;28;7253;-74
2023/12/02 04:41:54;;;;;;;;;;;;;;;3.15;48.59;99987.78;4985960;28;6812;-74
2023/12/02 04:44:20;;;;;;;;;;;;;;;3.16;49.03;99984.47;4993018;28;7008;-74
2023/12/02 04:46:45;;;;;;;;;;;;;;;3.17;48.59;99987.09;4986097;28;7869;-74
2023/12/02 04:49:12;;;;;;;;;;;;;;;3.19;49.05;99994.81;4975985;28;6795;-73
2023/12/02 04:51:38;;;;;;;;;;;;;;;3.16;48.64;99985.34;4995854;28;6800;-74
2023/12/02 04:54:03;;;;;;;;;;;;;;;3.17;49.71;99996.38;4979843;28;6942;-74
2023/12/02 04:56:30;;;;;;;;;;;;;;;3.13;49.56;99986.78;4976760;28;6934;-74
2023/12/02 04:58:56;;;;;;;;;;;;;;;3.13;49.43;99989.31;5001742;28;7018;-74
2023/12/02 05:01:21;;;;;;;;;;;;;;;3.12;48.98;99993.50;4976977;28;6966;-74
2023/12/02 05:03:47;;;;;;;;;;;;;;;3.11;49.49;99996.81;4984221;28;6933;-74
2023/12/02 05:06:17;;;;;;;;;;;;;;;3.11;49.51;99996.81;4986127;28;7205;-74
2023/12/02 05:08:44;;;;;;;;;;;;;;;3.11;48.74;100001.88;4980076;28;7293;-74
2023/12/02 05:11:18;;;;;;;;;;;;;;;3.09;48.61;99998.38;4986058;28;6887;-74
2023/12/02 05:13:43;;;;;;;;;;;;;;;3.10;49.00;100004.28;4997489;28;7535;-74
2023/12/02 05:16:09;;;;;;;;;;;;;;;3.10;49.03;100010.25;4985899;28;7263;-74
2023/12/02 05:18:34;;;;;;;;;;;;;;;3.10;49.31;100006.81;4973404;28;6788;-73
2023/12/02 05:21:00;;;;;;;;;;;;;;;3.09;49.37;100011.03;4980757;28;7345;-74
2023/12/02 05:23:25;;;;;;;;;;;;;;;3.09;49.05;100013.56;4979631;28;6792;-74
2023/12/02 05:25:51;;;;;;;;;;;;;;;3.10;49.86;100022.91;4984943;28;7956;-74
2023/12/02 05:28:18;;;;;;;;;;;;;;;3.09;48.90;100021.16;4974472;28;6791;-73
2023/12/02 05:30:45;;;;;;;;;;;;;;;3.09;49.57;100026.22;4977618;28;7058;-73
2023/12/02 05:33:10;;;;;;;;;;;;;;;3.10;49.29;100029.63;4981604;28;7086;-73
2023/12/02 05:35:37;;;;;;;;;;;;;;;3.10;48.53;100035.56;4985967;28;6808;-73
2023/12/02 05:38:03;;;;;;;;;;;;;;;3.10;49.59;100037.22;4974914;28;6791;-73
2023/12/02 05:40:28;;;;;;;;;;;;;;;3.09;49.93;100043.94;4991012;28;6793;-73
2023/12/02 05:42:53;;;;;;;;;;;;;;;3.07;49.44;100040.41;4976962;28;6779;-73
2023/12/02 05:45:19;;;;;;;;;;;;;;;3.08;49.40;100049.75;4979429;28;6856;-73
2023/12/02 05:47:44;;;;;;;;;;;;;;;3.09;49.00;100049.00;4984796;28;6807;-73
2023/12/02 05:50:10;;;;;;;;;;;;;;;3.07;49.23;100042.94;4973237;28;6892;-73
2023/12/02 05:52:36;;;;;;;;;;;;;;;3.06;49.12;100043.69;4985798;28;7088;-73
2023/12/02 05:55:01;;;;;;;;;;;;;;;3.04;48.85;100043.63;4974182;28;6950;-73
2023/12/02 05:57:27;;;;;;;;;;;;;;;3.05;48.50;100052.97;4974047;28;7289;-73
2023/12/02 05:59:52;;;;;;;;;;;;;;;3.06;49.62;100053.81;4984806;28;6860;-73
2023/12/02 06:02:18;;;;;;;;;;;;;;;3.04;48.36;100052.84;4973017;28;7777;-73
2023/12/02 06:04:43;;;;;;;;;;;;;;;3.04;48.78;100053.75;4983185;28;6851;-73
2023/12/02 06:07:09;;;;;;;;;;;;;;;3.04;49.29;100052.84;4977441;28;6944;-73
2023/12/02 06:09:34;;;;;;;;;;;;;;;3.04;49.29;100053.75;4956087;28;7155;-73
2023/12/02 06:12:00;;;;;;;;;;;;;;;3.05;49.51;100057.13;4973847;28;7247;-73
2023/12/02 06:14:25;;;;;;;;;;;;;;;3.08;48.93;100052.28;4975804;28;6837;-73
2023/12/02 06:16:51;;;;;;;;;;;;;;;3.11;49.70;100059.22;4974860;28;7105;-73
2023/12/02 06:19:20;;;;;;;;;;;;;;;3.10;48.64;100058.38;4981065;28;7257;-73
2023/12/02 06:21:46;;;;;;;;;;;;;;;3.09;48.75;100061.66;4977691;28;6812;-73
2023/12/02 06:24:11;;;;;;;;;;;;;;;3.07;48.54;100065.72;4983634;28;7334;-73
2023/12/02 06:26:37;;;;;;;;;;;;;;;3.05;49.49;100069.78;4980539;28;6803;-73
2023/12/02 06:29:04;;;;;;;;;;;;;;;3.02;48.75;100067.91;4964404;28;7016;-73
2023/12/02 06:31:29;;;;;;;;;;;;;;;3.04;48.92;100068.03;4980158;28;6807;-73
2023/12/02 06:33:55;;;;;;;;;;;;;;;3.05;49.23;100073.22;4982525;28;6930;-73
2023/12/02 06:36:20;;;;;;;;;;;;;;;3.08;48.90;100071.69;4975145;28;7246;-73
2023/12/02 06:38:46;;;;;;;;;;;;;;;3.11;48.08;100082.91;4985083;28;7257;-74
2023/12/02 06:41:11;;;;;;;;;;;;;;;3.10;48.31;100073.56;4983441;28;6788;-74
2023/12/02 06:43:37;;;;;;;;;;;;;;;3.10;48.89;100081.16;4985299;28;7145;-74
2023/12/02 06:46:02;;;;;;;;;;;;;;;3.09;48.86;100086.09;4967106;28;8665;-74
2023/12/02 06:48:28;;;;;;;;;;;;;;;3.04;48.32;100084.13;4978997;28;6819;-74
2023/12/02 06:50:53;;;;;;;;;;;;;;;3.01;48.39;100086.41;4971876;28;7105;-74
2023/12/02 06:53:19;;;;;;;;;;;;;;;3.00;48.50;100092.25;4974015;28;6796;-73
2023/12/02 06:55:44;;;;;;;;;;;;;;;2.98;47.92;100106.47;4980340;28;6960;-74
2023/12/02 06:58:10;;;;;;;;;;;;;;;2.97;48.44;100114.81;4976046;28;7089;-74
2023/12/02 07:00:35;;;;;;;;;;;;;;;2.97;49.00;100119.88;4977845;28;7878;-74
2023/12/02 07:03:01;;;;;;;;;;;;;;;2.98;49.07;100125.81;4973300;28;6780;-73
2023/12/02 07:05:27;;;;;;;;;;;;;;;2.98;48.83;100125.81;4981069;28;7045;-74
2023/12/02 07:07:53;;;;;;;;;;;;;;;2.98;48.94;100133.41;4975038;28;7822;-74
2023/12/02 07:10:18;;;;;;;;;;;;;;;2.98;48.42;100138.47;4979741;28;6837;-74
2023/12/02 07:12:44;;;;;;;;;;;;;;;2.97;48.42;100140.16;4979536;28;6784;-74
2023/12/02 07:15:11;;;;;;;;;;;;;;;3.00;48.01;100144.56;4971144;28;6939;-74
2023/12/02 07:17:36;;;;;;;;;;;;;;;3.01;48.07;100147.19;4971990;28;6804;-74
2023/12/02 07:20:02;;;;;;;;;;;;;;;3.04;47.59;100157.56;4980892;28;6982;-74
2023/12/02 07:22:28;;;;;;;;;;;;;;;3.05;48.35;100155.91;4973140;28;8058;-74
2023/12/02 07:24:54;;;;;;;;;;;;;;;3.06;48.37;100157.66;4972341;28;9952;-74
2023/12/02 07:27:19;;;;;;;;;;;;;;;3.07;48.77;100168.69;4964079;28;6980;-74
2023/12/02 07:29:45;;;;;;;;;;;;;;;3.05;48.21;100171.09;4971940;28;6791;-74
2023/12/02 07:32:10;;;;;;;;;;;;;;;3.05;48.48;100179.59;4987211;28;7201;-73
2023/12/02 07:34:36;;;;;;;;;;;;;;;3.04;48.13;100179.47;4971463;28;6962;-74
2023/12/02 07:37:02;;;;;;;;;;;;;;;3.04;48.33;100182.00;4972737;28;6838;-74
2023/12/02 07:39:27;;;;;;;;;;;;;;;3.04;48.65;100174.38;4981157;28;7200;-74
2023/12/02 07:41:53;;;;;;;;;;;;;;;3.06;48.16;100182.97;4966347;28;7602;-73
2023/12/02 07:44:18;;;;;;;;;;;;;;;3.06;48.18;100180.44;4971545;28;7130;-73
2023/12/02 07:46:44;;;;;;;;;;;;;;;3.08;48.26;100178.91;4981159;28;6934;-72
2023/12/02 07:49:10;;;;;;;;;;;;;;;3.07;47.81;100177.13;4970349;28;6792;-72
2023/12/02 07:51:36;;;;;;;;;;;;;;;3.08;48.06;100178.03;4981604;28;6955;-72
2023/12/02 07:54:01;;;;;;;;;;;;;;;3.05;48.48;100183.75;4982583;28;7067;-72
2023/12/02 07:56:27;;;;;;;;;;;;;;;3.02;48.29;100183.53;4983994;28;6779;-71
2023/12/02 07:58:54;;;;;;;;;;;;;;;2.99;47.87;100186.72;4985039;28;6787;-71
2023/12/02 08:01:23;;;;;;;;;;;;;;;2.96;48.72;100195.72;4985536;28;7293;-72
2023/12/02 08:03:48;;;;;;;;;;;;;;;2.95;48.65;100197.38;4982987;28;6812;-71
2023/12/02 08:06:14;;;;;;;;;;;;;;;2.97;48.93;100197.47;4976378;28;7024;-71
2023/12/02 08:08:39;;;;;;;;;;;;;;;2.97;48.40;100195.84;4974470;28;6788;-71
2023/12/02 08:11:05;;;;;;;;;;;;;;;2.98;48.56;100202.66;4958658;28;6950;-72
2023/12/02 08:13:31;;;;;;;;;;;;;;;2.97;48.34;100208.50;4970177;28;7350;-71
2023/12/02 08:15:56;;;;;;;;;;;;;;;2.96;49.21;100205.84;4984718;28;6959;-71
2023/12/02 08:18:22;;;;;;;;;;;;;;;2.92;48.75;100198.03;4974715;28;7159;-71
2023/12/02 08:20:47;;;;;;;;;;;;;;;2.88;48.02;100200.22;4987942;28;7047;-72
2023/12/02 08:23:13;;;;;;;;;;;;;;;2.82;48.11;100198.09;4979999;28;7679;-71
2023/12/02 08:25:38;;;;;;;;;;;;;;;2.74;48.20;100201.69;4972582;28;6780;-73
2023/12/02 08:28:04;;;;;;;;;;;;;;;2.65;48.33;100206.91;4983346;28;6896;-71
2023/12/02 08:30:29;;;;;;;;;;;;;;;2.58;48.10;100215.69;4982205;28;6969;-71
2023/12/02 08:32:55;;;;;;;;;;;;;;;2.52;48.43;100215.25;4982219;28;6931;-72
2023/12/02 08:35:21;;;;;;;;;;;;;;;2.45;48.37;100218.06;4979808;28;7892;-71
2023/12/02 08:37:47;;;;;;;;;;;;;;;2.41;48.31;100216.03;4985673;28;6816;-73
2023/12/02 08:40:12;;;;;;;;;;;;;;;2.35;48.23;100217.34;4984261;28;6951;-73
2023/12/02 08:42:38;;;;;;;;;;;;;;;2.33;49.06;100231.53;4986441;28;7211;-72
2023/12/02 08:45:03;;;;;;;;;;;;;;;2.30;49.21;100228.72;4984862;28;7168;-71
2023/12/02 08:47:29;;;;;;;;;;;;;;;2.29;48.87;100237.09;4981827;28;6809;-72
2023/12/02 08:49:54;;;;;;;;;;;;;;;2.28;49.13;100239.53;4984237;28;6959;-73
2023/12/02 08:52:20;;;;;;;;;;;;;;;2.27;49.87;100242.78;4980490;28;7469;-71
2023/12/02 08:54:45;;;;;;;;;;;;;;;2.31;49.13;100249.88;4984480;28;6985;-71
2023/12/02 08:57:11;;;;;;;;;;;;;;;2.31;48.96;100248.19;4966963;28;7045;-73
2023/12/02 08:59:36;;;;;;;;;;;;;;;2.31;49.73;100248.19;4994322;28;7151;-73
2023/12/02 09:02:05;;;;;;;;;;;;;;;2.33;50.05;100251.75;4986208;28;6804;-73
2023/12/02 09:04:31;;;;;;;;;;;;;;;2.35;49.17;100265.41;4982505;28;6808;-73
2023/12/02 09:06:57;;;;;;;;;;;;;;;2.38;49.96;100266.41;4983930;28;6804;-73
2023/12/02 09:09:22;;;;;;;;;;;;;;;2.39;49.45;100270.69;4986637;28;7002;-73
2023/12/02 09:11:48;;;;;;;;;;;;;;;2.39;49.39;100278.28;4982687;28;7375;-73
2023/12/02 09:14:13;;;;;;;;;;;;;;;2.42;49.35;100278.53;4972831;28;6954;-73
2023/12/02 09:16:46;;;;;;;;;;;;;;;2.42;49.43;100273.50;4971871;28;6882;-73
2023/12/02 09:19:34;;;;;;;;;;;;;;;2.45;49.59;100284.69;4961906;28;6986;-73
2023/12/02 09:22:00;;;;;;;;;;;;;;;2.46;49.05;100281.44;4975997;28;6824;-73
2023/12/02 09:24:37;;;;;;;;;;;;;;;2.49;48.93;100285.84;4984041;28;6787;-73
2023/12/02 09:27:05;;;;;;;;;;;;;;;2.51;49.64;100289.34;4974327;28;7046;-73
2023/12/02 09:29:40;;;;;;;;;;;;;;;2.53;48.98;100297.97;4985838;28;6950;-73
2023/12/02 09:32:24;;;;;;;;;;;;;;;2.56;49.46;100303.28;4982374;28;7779;-73
2023/12/02 09:34:57;;;;;;;;;;;;;;;2.57;48.68;100299.09;4985529;28;9376;-73
2023/12/02 09:37:51;;;;;;;;;;;;;;;2.61;49.12;100302.00;4981697;28;6865;-73
2023/12/02 09:40:25;;;;;;;;;;;;;;;2.62;49.08;100296.16;4983575;28;6815;-73
2023/12/02 09:42:56;;;;;;;;;;;;;;;2.68;48.88;100299.94;4970747;28;6819;-74
2023/12/02 09:45:31;;;;;;;;;;;;;;;2.72;49.58;100295.22;4948273;28;7166;-73
2023/12/02 09:48:13;;;;;;;;;;;;;;;2.78;48.76;100297.34;4983390;28;6895;-73
2023/12/02 09:50:59;;;;;;;;;;;;;;;2.83;49.47;100296.06;4965270;28;7931;-74
2023/12/02 09:53:37;;;;;;;;;;;;;;;2.88;49.27;100296.41;4980517;28;6819;-73
2023/12/02 09:56:15;;;;;;;;;;;;;;;2.96;49.70;100295.38;4973592;28;7217;-73
2023/12/02 09:58:44;;;;;;;;;;;;;;;3.12;50.07;100294.88;4968610;28;7002;-73
2023/12/02 10:01:30;;;;;;;;;;;;;;;3.39;50.47;100291.78;4975727;28;7981;-72
2023/12/02 10:04:17;;;;;;;;;;;;;;;3.66;49.88;100307.28;4983657;28;7599;-73
2023/12/02 10:06:50;;;;;;;;;;;;;;;3.96;49.71;100298.53;4971298;28;7871;-73
2023/12/02 10:09:31;;;;;;;;;;;;;;;4.29;49.27;100289.03;4975623;28;7301;-71
2023/12/02 10:12:22;;;;;;;;;;;;;;;4.65;48.34;100290.66;4975241;28;6985;-73
2023/12/02 10:14:59;;;;;;;;;;;;;;;4.91;48.64;100289.00;4981951;28;6888;-72
2023/12/02 10:17:25;;;;;;;;;;;;;;;5.14;48.38;100285.50;4979616;28;6853;-71
2023/12/02 10:19:56;;;;;;;;;;;;;;;5.38;48.31;100278.66;4980472;28;7219;-72
2023/12/02 10:22:28;;;;;;;;;;;;;;;5.69;47.84;100278.16;4965575;28;7624;-72
2023/12/02 10:25:03;;;;;;;;;;;;;;;6.10;47.02;100284.19;4982312;28;6970;-71
2023/12/02 10:27:39;;;;;;;;;;;;;;;6.69;46.06;100276.81;4973714;28;7051;-71
2023/12/02 10:30:18;;;;;;;;;;;;;;;7.31;44.21;100272.84;4963990;28;7369;-71
2023/12/02 10:33:06;;;;;;;;;;;;;;;7.83;44.15;100266.47;4979573;28;11785;-76
2023/12/02 10:35:44;;;;;;;;;;;;;;;8.30;43.35;100271.56;4976352;28;7665;-80
2023/12/02 10:38:21;;;;;;;;;;;;;;;8.61;42.23;100270.75;4978598;28;7046;-74
2023/12/02 10:41:25;;;;;;;;;;;;;;;8.87;42.88;100271.22;4981833;28;6816;-78
2023/12/02 10:43:55;;;;;;;;;;;;;;;9.11;42.20;100273.34;4954820;28;7286;-80
2023/12/02 10:46:23;;;;;;;;;;;;;;;9.38;41.14;100260.22;4974211;28;7103;-76
2023/12/02 10:48:49;;;;;;;;;;;;;;;9.69;40.66;100254.91;4991757;28;7162;-75
2023/12/02 10:51:15;;;;;;;;;;;;;;;10.03;39.67;100263.34;4958818;28;6960;-78
2023/12/02 10:53:42;;;;;;;;;;;;;;;10.27;39.08;100263.63;4981990;28;6799;-81
2023/12/02 10:56:16;;;;;;;;;;;;;;;10.52;38.78;100267.38;4971241;28;8529;-79
2023/12/02 10:58:45;;;;;;;;;;;;;;;10.61;38.33;100274.59;4957060;28;7301;-77
2023/12/02 11:01:18;;;;;;;;;;;;;;;10.66;37.89;100272.25;4953808;28;7698;-81
2023/12/02 11:04:15;;;;;;;;;;;;;;;10.41;38.19;100273.66;4953653;28;7068;-76
2023/12/02 11:06:49;;;;;;;;;;;;;;;10.07;38.37;100283.19;4979647;28;7214;-80
2023/12/02 11:09:20;;;;;;;;;;;;;;;9.75;38.41;100273.94;4982382;28;7348;-82
2023/12/02 11:11:51;;;;;;;;;;;;;;;9.42;38.82;100278.34;4984304;28;7114;-78
2023/12/02 11:14:17;;;;;;;;;;;;;;;9.67;38.81;100283.81;4982926;28;7051;-79
2023/12/02 11:16:49;;;;;;;;;;;;;;;10.05;38.18;100281.34;4971762;28;7021;-81
2023/12/02 11:19:51;;;;;;;;;;;;;;;10.48;37.74;100280.88;4967470;28;6982;-72
2023/12/02 11:22:41;;;;;;;;;;;;;;;10.92;37.05;100285.38;4985221;28;6820;-75
2023/12/02 11:25:36;;;;;;;;;;;;;;;11.21;36.55;100281.56;4963834;28;6991;-74
2023/12/02 11:28:06;;;;;;;;;;;;;;;11.57;36.70;100282.16;4983355;28;7248;-73
2023/12/02 11:31:10;;;;;;;;;;;;;;;11.89;35.88;100283.50;4972585;28;7068;-72
2023/12/02 11:33:56;;;;;;;;;;;;;;;12.13;35.64;100287.03;4975433;28;6958;-72
2023/12/02 11:36:27;;;;;;;;;;;;;;;12.29;35.31;100285.94;4982630;28;6828;-72
2023/12/02 11:39:19;;;;;;;;;;;;;;;12.43;35.15;100286.47;4987850;28;6871;-73
2023/12/02 11:41:55;;;;;;;;;;;;;;;12.52;33.99;100285.97;4985695;28;7036;-72
2023/12/02 11:44:55;;;;;;;;;;;;;;;12.57;33.63;100287.88;4986707;28;6807;-73
2023/12/02 11:47:31;;;;;;;;;;;;;;;12.60;34.08;100288.00;4980943;28;7019;-73
2023/12/02 11:50:24;;;;;;;;;;;;;;;12.75;33.31;100291.97;4974291;28;8257;-71
2023/12/02 11:53:24;;;;;;;;;;;;;;;12.89;34.23;100289.88;4986207;28;6873;-72
2023/12/02 11:56:09;;;;;;;;;;;;;;;12.94;32.81;100279.75;4989544;28;6831;-72
2023/12/02 11:58:50;;;;;;;;;;;;;;;12.68;33.28;100289.97;4985397;28;7000;-72
2023/12/02 12:01:36;;;;;;;;;;;;;;;11.84;33.30;100296.97;4965358;28;7150;-71
2023/12/02 12:04:42;;;;;;;;;;;;;;;10.52;34.80;100300.69;4985601;28;6839;-71
2023/12/02 12:07:07;;;;;;;;;;;;;;;9.45;36.06;100303.19;4986029;28;6815;-74
2023/12/02 12:09:58;;;;;;;;;;;;;;;8.59;36.37;100308.09;4982177;28;7984;-71
2023/12/02 12:12:26;;;;;;;;;;;;;;;7.92;37.27;100309.50;4985241;28;7171;-72
2023/12/02 12:14:52;;;;;;;;;;;;;;;7.38;37.90;100321.66;4968015;28;6996;-71
2023/12/02 12:17:17;;;;;;;;;;;;;;;6.92;39.12;100318.09;4991212;28;7059;-72
2023/12/02 12:19:43;;;;;;;;;;;;;;;6.57;39.03;100329.50;4981019;28;6926;-71
2023/12/02 12:22:09;;;;;;;;;;;;;;;6.28;39.41;100331.06;4997419;28;7001;-72
2023/12/02 12:24:35;;;;;;;;;;;;;;;6.01;40.00;100331.06;4974480;28;6938;-71
2023/12/02 12:27:00;;;;;;;;;;;;;;;5.81;40.33;100328.06;4982808;28;6962;-71
2023/12/02 12:29:25;;;;;;;;;;;;;;;5.62;41.12;100324.31;4977195;28;6952;-74
2023/12/02 12:31:51;;;;;;;;;;;;;;;5.44;41.35;100334.13;4980815;28;7970;-72
2023/12/02 12:34:18;;;;;;;;;;;;;;;5.30;41.52;100340.78;4984404;28;7185;-71
2023/12/02 12:36:43;;;;;;;;;;;;;;;5.17;41.87;100336.56;4984876;28;6796;-71
2023/12/02 12:39:11;;;;;;;;;;;;;;;5.10;42.34;100335.22;4974478;28;7025;-71
2023/12/02 12:41:38;;;;;;;;;;;;;;;5.05;42.42;100326.44;4977768;28;6999;-71
2023/12/02 12:44:04;;;;;;;;;;;;;;;4.98;42.67;100331.84;4987024;28;7194;-71
2023/12/02 12:46:30;;;;;;;;;;;;;;;4.95;43.14;100334.19;4967634;28;7763;-73
2023/12/02 12:48:56;;;;;;;;;;;;;;;4.87;43.50;100333.63;4973352;28;7227;-72
2023/12/02 12:51:23;;;;;;;;;;;;;;;4.82;43.14;100343.47;4984770;28;6784;-72
2023/12/02 12:53:58;;;;;;;;;;;;;;;4.76;43.33;100345.59;4974910;28;7093;-72
2023/12/02 12:56:39;;;;;;;;;;;;;;;4.72;43.70;100343.59;4980819;28;6800;-73
2023/12/02 12:59:09;;;;;;;;;;;;;;;4.66;43.98;100345.72;4986610;28;6796;-70
2023/12/02 13:01:37;;;;;;;;;;;;;;;4.63;43.71;100355.66;4983761;28;7128;-70
2023/12/02 13:04:25;;;;;;;;;;;;;;;4.57;43.93;100345.94;4974776;28;7089;-74
2023/12/02 13:07:10;;;;;;;;;;;;;;;4.54;44.46;100351.72;4980202;28;7574;-71
2023/12/02 13:09:43;;;;;;;;;;;;;;;4.52;44.44;100353.22;4986435;28;6973;-72